Time;durP1;ratioP1;P1;durP2;ratioP2;P2;SDS_P1;SDS_P2;PMS_P1;PMS_P2;Temp;Humidity;BMP_temperature;BMP_pressure;BME280_temperature;BME280_humidity;BME280_pressure;Samples;Min_cycle;Max_cycle;Signal;HPM_P1;HPM_P2
2022/10/10 00:00:40;;;;;;;14.68;5.40;;;13.80;99.90;;;;;;5035315;28;20037;-74
2022/10/10 00:03:06;;;;;;;7.38;3.97;;;13.70;99.90;;;;;;5027119;28;20053;-74
2022/10/10 00:05:32;;;;;;;9.23;4.22;;;13.60;99.90;;;;;;5028167;28;20439;-74
2022/10/10 00:07:58;;;;;;;7.53;4.30;;;13.60;99.90;;;;;;5032786;28;20029;-74
2022/10/10 00:10:24;;;;;;;5.70;3.72;;;13.60;99.90;;;;;;5035282;28;20388;-74
2022/10/10 00:12:50;;;;;;;10.90;4.20;;;13.50;99.90;;;;;;5026945;28;20030;-74
2022/10/10 00:15:16;;;;;;;11.10;4.15;;;13.50;99.90;;;;;;5037800;28;20036;-74
2022/10/10 00:17:42;;;;;;;9.05;4.68;;;13.40;99.90;;;;;;5038809;28;20497;-74
2022/10/10 00:20:12;;;;;;;8.27;4.10;;;13.50;99.90;;;;;;5041198;28;20119;-74
2022/10/10 00:22:38;;;;;;;7.25;4.38;;;13.50;99.90;;;;;;5032183;28;20021;-74
2022/10/10 00:25:06;;;;;;;7.55;4.70;;;13.40;99.90;;;;;;5027886;28;20021;-74
2022/10/10 00:27:32;;;;;;;14.43;4.63;;;13.40;99.90;;;;;;5026787;28;20026;-74
2022/10/10 00:29:58;;;;;;;9.95;4.07;;;13.40;99.90;;;;;;5030095;28;20033;-74
2022/10/10 00:32:23;;;;;;;9.57;4.43;;;13.50;99.90;;;;;;5029524;28;20037;-74
2022/10/10 00:34:50;;;;;;;8.68;4.43;;;13.40;99.90;;;;;;5035313;28;20392;-74
2022/10/10 00:37:15;;;;;;;6.43;3.83;;;13.50;99.90;;;;;;5032175;28;20388;-74
2022/10/10 00:39:41;;;;;;;7.97;4.78;;;13.60;99.90;;;;;;5027733;28;20041;-74
2022/10/10 00:42:09;;;;;;;6.35;4.20;;;13.80;99.90;;;;;;5026570;28;20029;-74
2022/10/10 00:44:36;;;;;;;10.73;5.03;;;13.80;99.90;;;;;;5028490;28;20029;-74
2022/10/10 00:47:01;;;;;;;6.32;3.58;;;13.90;99.90;;;;;;5028696;28;20135;-74
2022/10/10 00:49:29;;;;;;;15.90;4.43;;;14.00;99.90;;;;;;5033932;28;20574;-74
2022/10/10 00:51:57;;;;;;;9.32;4.20;;;13.80;99.90;;;;;;5027078;28;20025;-74
2022/10/10 00:54:24;;;;;;;9.80;4.53;;;13.90;99.90;;;;;;5040075;28;20021;-74
2022/10/10 00:57:00;;;;;;;8.65;4.65;;;14.00;99.90;;;;;;5026845;28;20026;-74
2022/10/10 00:59:30;;;;;;;9.95;4.55;;;13.90;99.90;;;;;;5027856;28;20033;-74
2022/10/10 01:01:55;;;;;;;8.00;3.92;;;14.00;99.90;;;;;;5034008;28;20033;-74
2022/10/10 01:04:35;;;;;;;12.90;4.25;;;14.00;99.90;;;;;;5029224;28;20091;-74
2022/10/10 01:07:04;;;;;;;7.88;4.13;;;14.10;99.90;;;;;;5025753;28;20040;-74
2022/10/10 01:09:30;;;;;;;9.63;5.10;;;14.00;99.90;;;;;;5027542;28;20061;-74
2022/10/10 01:12:39;;;;;;;7.65;4.53;;;14.00;99.90;;;;;;5028992;28;20028;-74
2022/10/10 01:15:22;;;;;;;7.35;4.70;;;14.00;99.90;;;;;;5031884;28;20045;-74
2022/10/10 01:18:17;;;;;;;9.52;4.53;;;14.00;99.90;;;;;;5029492;28;20025;-74
2022/10/10 01:21:12;;;;;;;10.25;4.07;;;13.90;99.90;;;;;;5030561;28;20192;-74
2022/10/10 01:24:04;;;;;;;;;;;13.80;99.90;;;;;;5038412;28;20091;-74
2022/10/10 01:26:48;;;;;;;7.63;4.20;;;13.70;99.90;;;;;;5050202;28;19909;-74
2022/10/10 01:29:27;;;;;;;8.30;3.90;;;13.60;99.90;;;;;;5031922;28;20453;-74
2022/10/10 01:31:55;;;;;;;8.73;4.22;;;13.60;99.90;;;;;;5030009;28;20487;-74
2022/10/10 01:34:32;;;;;;;8.90;4.78;;;13.60;99.90;;;;;;5030973;28;20033;-74
2022/10/10 01:37:18;;;;;;;6.38;4.10;;;13.70;99.90;;;;;;5031395;28;20060;-74
2022/10/10 01:40:18;;;;;;;7.30;4.22;;;13.80;99.90;;;;;;5035204;28;20029;-74
2022/10/10 01:42:53;;;;;;;7.32;4.30;;;13.90;99.90;;;;;;5031699;28;20103;-74
2022/10/10 01:45:19;;;;;;;8.45;4.18;;;13.80;99.90;;;;;;5034949;28;20025;-74
2022/10/10 01:47:46;;;;;;;6.45;3.85;;;13.70;99.90;;;;;;5033478;28;20660;-74
2022/10/10 01:50:16;;;;;;;11.43;4.55;;;13.70;99.90;;;;;;5034936;28;20057;-74
2022/10/10 01:53:08;;;;;;;6.95;4.10;;;13.80;99.90;;;;;;5039215;28;20039;-74
2022/10/10 01:55:43;;;;;;;8.13;4.72;;;13.80;99.90;;;;;;5031375;28;20044;-74
2022/10/10 01:58:52;;;;;;;7.80;4.53;;;13.70;99.90;;;;;;5030637;28;20036;-74
2022/10/10 02:01:27;;;;;;;9.13;3.95;;;13.80;99.90;;;;;;5026254;28;20061;-74
2022/10/10 02:04:30;;;;;;;11.30;4.63;;;13.90;99.90;;;;;;5029838;28;20037;-74
2022/10/10 02:07:25;;;;;;;10.15;4.85;;;13.80;99.90;;;;;;5029364;28;20045;-74
2022/10/10 02:09:52;;;;;;;9.38;4.22;;;13.70;99.90;;;;;;5029686;28;20021;-74
2022/10/10 02:12:19;;;;;;;10.32;4.65;;;13.70;99.90;;;;;;5032981;28;20033;-74
2022/10/10 02:14:50;;;;;;;8.00;4.18;;;13.80;99.90;;;;;;5033174;28;20041;-74
2022/10/10 02:17:16;;;;;;;7.93;4.30;;;13.80;99.90;;;;;;5030584;28;20033;-74
2022/10/10 02:19:47;;;;;;;10.48;4.60;;;13.90;99.90;;;;;;5028233;28;20034;-74
2022/10/10 02:22:13;;;;;;;11.52;4.95;;;14.00;99.90;;;;;;5029857;28;20030;-74
2022/10/10 02:24:39;;;;;;;9.55;3.95;;;14.10;99.90;;;;;;5033595;28;20044;-74
2022/10/10 02:27:26;;;;;;;14.82;5.30;;;14.10;99.90;;;;;;5028148;28;20472;-74
2022/10/10 02:29:55;;;;;;;10.57;4.32;;;14.10;99.90;;;;;;5032370;28;20033;-74
2022/10/10 02:32:31;;;;;;;7.45;5.07;;;14.00;99.90;;;;;;5031685;28;20044;-74
2022/10/10 02:35:02;;;;;;;9.98;4.93;;;14.00;99.90;;;;;;5029799;28;20033;-74
2022/10/10 02:37:29;;;;;;;10.90;5.00;;;14.00;99.90;;;;;;5029818;28;20033;-74
2022/10/10 02:39:59;;;;;;;9.93;4.70;;;14.10;99.90;;;;;;5029304;28;20396;-74
2022/10/10 02:42:27;;;;;;;6.80;4.03;;;14.00;99.90;;;;;;5028567;28;20036;-74
2022/10/10 02:44:54;;;;;;;8.25;4.05;;;13.90;99.90;;;;;;5029648;28;20475;-74
2022/10/10 02:47:20;;;;;;;7.82;4.50;;;13.80;99.90;;;;;;5030334;28;20091;-74
2022/10/10 02:49:46;;;;;;;8.00;4.40;;;13.80;99.90;;;;;;5029400;28;20025;-74
2022/10/10 02:52:15;;;;;;;6.53;4.20;;;13.80;99.90;;;;;;5029765;28;20029;-74
2022/10/10 02:54:41;;;;;;;6.50;4.53;;;13.70;99.90;;;;;;5036736;28;20123;-74
2022/10/10 02:57:07;;;;;;;7.15;4.38;;;13.70;99.90;;;;;;5029603;28;20480;-74
2022/10/10 02:59:33;;;;;;;6.50;4.18;;;13.70;99.90;;;;;;5029167;28;20091;-74
2022/10/10 03:01:59;;;;;;;8.75;3.90;;;13.70;99.90;;;;;;5029638;28;20037;-73
2022/10/10 03:04:24;;;;;;;7.13;4.00;;;13.80;99.90;;;;;;5024935;28;20030;-72
2022/10/10 03:06:50;;;;;;;8.82;4.22;;;13.70;99.90;;;;;;5024053;28;21188;-72
2022/10/10 03:09:16;;;;;;;11.65;4.35;;;13.70;99.90;;;;;;5022836;28;20647;-73
2022/10/10 03:11:42;;;;;;;7.32;4.43;;;13.70;99.90;;;;;;5024573;28;20047;-73
2022/10/10 03:14:07;;;;;;;10.25;4.25;;;13.50;99.90;;;;;;5026684;28;20049;-73
2022/10/10 03:16:33;;;;;;;9.68;4.30;;;13.60;99.90;;;;;;5022520;28;20112;-73
2022/10/10 03:18:59;;;;;;;8.60;3.95;;;13.60;99.90;;;;;;5021823;28;20919;-73
2022/10/10 03:21:24;;;;;;;14.95;5.32;;;13.50;99.90;;;;;;5021721;28;20077;-73
2022/10/10 03:23:50;;;;;;;9.35;4.15;;;13.40;99.90;;;;;;5023507;28;20029;-72
2022/10/10 03:26:16;;;;;;;11.18;4.63;;;13.30;99.90;;;;;;5021425;28;20033;-73
2022/10/10 03:28:42;;;;;;;7.20;4.00;;;13.40;99.90;;;;;;5023597;28;20494;-73
2022/10/10 03:31:07;;;;;;;7.72;3.83;;;13.10;99.90;;;;;;5027131;28;20029;-73
2022/10/10 03:33:33;;;;;;;6.93;4.60;;;12.90;99.90;;;;;;5024518;28;20675;-72
2022/10/10 03:35:59;;;;;;;10.98;4.70;;;12.90;99.90;;;;;;5022977;28;20155;-73
2022/10/10 03:38:25;;;;;;;8.75;3.88;;;12.80;99.90;;;;;;5024245;28;20108;-73
2022/10/10 03:40:50;;;;;;;8.13;4.57;;;12.70;99.90;;;;;;5024028;28;20041;-73
2022/10/10 03:43:16;;;;;;;7.15;4.60;;;12.70;99.90;;;;;;5025383;28;20037;-73
2022/10/10 03:45:43;;;;;;;7.82;4.82;;;12.80;99.90;;;;;;5023640;28;20184;-73
2022/10/10 03:48:09;;;;;;;9.07;5.22;;;12.90;99.90;;;;;;5021746;28;20484;-73
2022/10/10 03:50:35;;;;;;;10.02;4.05;;;12.80;99.90;;;;;;5022094;28;20067;-73
2022/10/10 03:53:01;;;;;;;7.00;4.28;;;12.90;99.90;;;;;;5025374;28;20071;-73
2022/10/10 03:55:27;;;;;;;8.90;4.20;;;12.90;99.90;;;;;;5023374;28;20037;-73
2022/10/10 03:57:53;;;;;;;11.43;4.72;;;12.90;99.90;;;;;;5023058;28;20742;-73
2022/10/10 04:00:19;;;;;;;9.00;4.25;;;12.80;99.90;;;;;;5021964;28;20041;-73
2022/10/10 04:02:44;;;;;;;10.50;4.93;;;12.80;99.90;;;;;;5021718;28;20072;-72
2022/10/10 04:05:10;;;;;;;8.20;4.25;;;12.70;99.90;;;;;;5020693;28;20041;-72
2022/10/10 04:07:36;;;;;;;7.07;4.20;;;12.60;99.90;;;;;;5020298;28;20067;-73
2022/10/10 04:10:02;;;;;;;9.35;4.10;;;12.70;99.90;;;;;;5021684;28;20452;-72
2022/10/10 04:12:27;;;;;;;8.90;5.00;;;12.50;99.90;;;;;;5019141;28;20510;-73
2022/10/10 04:14:53;;;;;;;10.10;5.00;;;12.60;99.90;;;;;;5025867;28;20061;-73
2022/10/10 04:17:19;;;;;;;7.53;4.30;;;12.60;99.90;;;;;;5019429;28;20043;-73
2022/10/10 04:19:44;;;;;;;10.23;5.00;;;12.70;99.90;;;;;;5020426;28;20087;-73
2022/10/10 04:22:10;;;;;;;11.68;4.65;;;12.60;99.90;;;;;;5020316;28;20029;-73
2022/10/10 04:24:35;;;;;;;9.40;4.05;;;12.50;99.90;;;;;;5017118;28;20061;-73
2022/10/10 04:27:01;;;;;;;9.63;4.28;;;12.30;99.90;;;;;;5022877;28;20029;-73
2022/10/10 04:29:27;;;;;;;9.65;4.30;;;12.40;99.90;;;;;;5020497;28;20037;-73
2022/10/10 04:31:52;;;;;;;9.98;5.68;;;12.50;99.90;;;;;;5034606;28;20037;-73
2022/10/10 04:34:18;;;;;;;8.70;5.32;;;12.60;99.90;;;;;;5020608;28;20033;-72
2022/10/10 04:36:44;;;;;;;11.23;5.20;;;12.60;99.90;;;;;;5021916;28;20036;-73
2022/10/10 04:39:09;;;;;;;9.43;4.93;;;12.60;99.90;;;;;;5020455;28;20124;-73
2022/10/10 04:41:35;;;;;;;6.63;4.28;;;12.50;99.90;;;;;;5020259;28;20130;-72
2022/10/10 04:44:00;;;;;;;9.35;4.93;;;12.50;99.90;;;;;;5020005;28;20064;-73
2022/10/10 04:46:26;;;;;;;8.55;4.72;;;12.70;99.90;;;;;;5020809;28;20104;-72
2022/10/10 04:48:52;;;;;;;8.35;4.13;;;12.50;99.90;;;;;;5021526;28;20617;-73
2022/10/10 04:51:17;;;;;;;8.18;4.60;;;12.40;99.90;;;;;;5026015;28;20363;-73
2022/10/10 04:53:43;;;;;;;8.52;4.75;;;12.30;99.90;;;;;;5030520;28;20097;-72
2022/10/10 04:56:09;;;;;;;7.80;4.47;;;12.40;99.90;;;;;;5026114;28;20033;-72
2022/10/10 04:58:34;;;;;;;12.27;4.45;;;12.40;99.90;;;;;;5025854;28;20052;-73
2022/10/10 05:01:00;;;;;;;11.88;4.63;;;12.50;99.90;;;;;;5023832;28;20128;-73
2022/10/10 05:03:26;;;;;;;10.80;5.00;;;12.50;99.90;;;;;;5026207;28;20037;-72
2022/10/10 05:05:52;;;;;;;11.48;4.65;;;12.40;99.90;;;;;;5026393;28;20037;-73
2022/10/10 05:08:18;;;;;;;11.77;4.97;;;12.50;99.90;;;;;;5024374;28;20036;-73
2022/10/10 05:10:45;;;;;;;9.57;4.53;;;12.60;99.90;;;;;;5025243;28;20041;-72
2022/10/10 05:13:13;;;;;;;8.18;3.97;;;12.60;99.90;;;;;;5023713;28;20047;-73
2022/10/10 05:15:41;;;;;;;8.52;4.65;;;12.60;99.90;;;;;;5024579;28;20037;-73
2022/10/10 05:18:07;;;;;;;6.90;4.28;;;12.70;99.90;;;;;;5024066;28;20079;-73
2022/10/10 05:20:35;;;;;;;7.28;4.57;;;12.60;99.90;;;;;;5022517;28;20041;-72
2022/10/10 05:23:01;;;;;;;8.68;4.88;;;12.60;99.90;;;;;;5030119;28;20091;-73
2022/10/10 05:25:27;;;;;;;10.20;4.20;;;12.60;99.90;;;;;;5029856;28;20033;-74
2022/10/10 05:27:53;;;;;;;9.75;5.43;;;12.60;99.90;;;;;;5025697;28;20059;-72
2022/10/10 05:30:19;;;;;;;8.50;4.82;;;12.70;99.90;;;;;;5029101;28;20029;-72
2022/10/10 05:32:45;;;;;;;11.10;5.38;;;12.80;99.90;;;;;;5031712;28;20092;-72
2022/10/10 05:35:10;;;;;;;12.55;5.53;;;12.90;99.90;;;;;;5023030;28;20029;-71
2022/10/10 05:37:36;;;;;;;9.45;4.57;;;13.00;99.90;;;;;;5022351;28;20048;-72
2022/10/10 05:40:03;;;;;;;8.60;4.63;;;13.10;99.90;;;;;;5030529;28;20047;-73
2022/10/10 05:42:28;;;;;;;10.45;4.90;;;13.20;99.90;;;;;;5022803;28;20108;-73
2022/10/10 05:44:54;;;;;;;11.23;5.40;;;13.30;99.90;;;;;;5023296;28;20108;-72
2022/10/10 05:47:20;;;;;;;9.15;4.78;;;13.30;99.90;;;;;;5023856;28;20120;-74
2022/10/10 05:49:45;;;;;;;9.82;5.30;;;13.10;99.90;;;;;;5022416;28;20514;-72
2022/10/10 05:52:11;;;;;;;7.80;4.50;;;13.10;99.90;;;;;;5022890;28;20061;-73
2022/10/10 05:54:36;;;;;;;13.25;5.65;;;13.00;99.90;;;;;;5024184;28;20033;-73
2022/10/10 05:57:02;;;;;;;10.55;4.63;;;13.00;99.90;;;;;;5026046;28;20034;-72
2022/10/10 05:59:28;;;;;;;8.80;5.00;;;13.10;99.90;;;;;;5022915;28;20029;-73
2022/10/10 06:01:54;;;;;;;7.45;4.63;;;13.30;99.90;;;;;;5024665;28;20116;-73
2022/10/10 06:04:22;;;;;;;11.38;4.45;;;13.30;99.90;;;;;;5024294;28;20112;-72
2022/10/10 06:06:47;;;;;;;8.32;4.70;;;13.40;99.90;;;;;;5022274;28;20047;-73
2022/10/10 06:09:13;;;;;;;6.88;4.68;;;13.50;99.90;;;;;;5022912;28;20060;-73
2022/10/10 06:11:39;;;;;;;9.77;4.97;;;13.50;99.90;;;;;;5023163;28;20668;-73
2022/10/10 06:14:04;;;;;;;11.00;5.10;;;13.50;99.90;;;;;;5023054;28;20057;-73
2022/10/10 06:16:30;;;;;;;9.00;5.07;;;13.50;99.90;;;;;;5026134;28;20033;-73
2022/10/10 06:18:56;;;;;;;15.32;5.63;;;13.50;99.90;;;;;;5027716;28;20042;-72
2022/10/10 06:21:23;;;;;;;11.13;5.18;;;13.50;99.90;;;;;;5026373;28;20439;-72
2022/10/10 06:23:48;;;;;;;8.25;4.72;;;13.50;99.90;;;;;;5028656;28;20034;-72
2022/10/10 06:26:14;;;;;;;8.27;5.35;;;13.50;99.90;;;;;;5025514;28;20034;-73
2022/10/10 06:28:40;;;;;;;9.27;5.15;;;13.50;99.90;;;;;;5021055;28;20125;-73
2022/10/10 06:31:07;;;;;;;8.23;4.78;;;13.50;99.90;;;;;;5023106;28;20021;-72
2022/10/10 06:33:33;;;;;;;10.25;4.60;;;13.50;99.90;;;;;;5024108;28;20037;-72
2022/10/10 06:36:06;;;;;;;8.20;4.80;;;13.50;99.90;;;;;;5022599;28;20663;-73
2022/10/10 06:38:36;;;;;;;8.25;4.63;;;13.60;99.90;;;;;;5023322;28;20399;-72
2022/10/10 06:41:03;;;;;;;8.23;4.88;;;13.70;99.90;;;;;;5026162;28;20618;-72
2022/10/10 06:43:29;;;;;;;11.57;6.32;;;13.70;99.90;;;;;;5026720;28;20037;-73
2022/10/10 06:45:55;;;;;;;8.95;4.32;;;13.80;99.90;;;;;;5021746;28;20033;-72
2022/10/10 06:48:21;;;;;;;9.70;5.57;;;13.90;99.90;;;;;;5025717;28;20037;-72
2022/10/10 06:51:08;;;;;;;12.05;6.00;;;13.90;99.90;;;;;;5023064;28;20090;-73
2022/10/10 06:53:33;;;;;;;13.23;4.85;;;14.00;99.90;;;;;;5022228;28;20084;-73
2022/10/10 06:56:00;;;;;;;9.27;5.28;;;14.00;99.90;;;;;;5028510;28;20569;-73
2022/10/10 06:58:27;;;;;;;10.70;5.55;;;13.90;99.90;;;;;;5027894;28;20028;-72
2022/10/10 07:00:57;;;;;;;10.30;5.60;;;14.00;99.90;;;;;;5021454;28;20578;-72
2022/10/10 07:03:23;;;;;;;10.55;6.68;;;14.00;99.90;;;;;;5028769;28;20035;-72
2022/10/10 07:05:54;;;;;;;9.40;5.90;;;13.90;99.90;;;;;;5024442;28;20026;-73
2022/10/10 07:08:20;;;;;;;8.43;4.95;;;13.80;99.90;;;;;;5029341;28;20111;-73
2022/10/10 07:10:46;;;;;;;10.30;5.28;;;13.80;99.90;;;;;;5029514;28;20093;-72
2022/10/10 07:13:13;;;;;;;9.50;5.80;;;13.70;99.90;;;;;;5025442;28;20482;-73
2022/10/10 07:15:38;;;;;;;10.73;6.97;;;13.70;99.90;;;;;;5021618;28;20034;-72
2022/10/10 07:18:05;;;;;;;12.30;7.10;;;13.70;99.90;;;;;;5021928;28;20082;-73
2022/10/10 07:20:31;;;;;;;13.75;7.22;;;13.80;99.90;;;;;;5022453;28;20045;-73
2022/10/10 07:22:56;;;;;;;14.32;7.18;;;13.80;99.90;;;;;;5021365;28;20036;-72
2022/10/10 07:25:22;;;;;;;15.55;7.40;;;14.00;99.90;;;;;;5021653;28;20549;-72
2022/10/10 07:27:48;;;;;;;13.65;6.38;;;14.10;99.90;;;;;;5026009;28;20033;-73
2022/10/10 07:30:14;;;;;;;20.70;6.57;;;14.00;99.90;;;;;;5020139;28;20030;-72
2022/10/10 07:32:39;;;;;;;10.88;6.00;;;14.00;99.90;;;;;;5016473;28;20130;-72
2022/10/10 07:35:05;;;;;;;10.73;5.85;;;14.10;99.90;;;;;;5020352;28;20041;-71
2022/10/10 07:37:31;;;;;;;12.45;6.80;;;14.20;99.90;;;;;;5023481;28;20065;-72
2022/10/10 07:39:57;;;;;;;721.97;173.15;;;14.30;99.90;;;;;;5020785;28;20586;-73
2022/10/10 07:42:22;;;;;;;1704.13;432.90;;;14.30;99.90;;;;;;5023908;28;20037;-72
2022/10/10 07:44:48;;;;;;;416.67;107.43;;;14.40;99.90;;;;;;5028557;28;20552;-72
2022/10/10 07:47:14;;;;;;;26.83;13.60;;;14.20;99.90;;;;;;5042665;28;20119;-72
2022/10/10 07:49:39;;;;;;;19.30;10.20;;;14.10;99.90;;;;;;5036186;28;20037;-72
2022/10/10 07:52:05;;;;;;;17.63;7.47;;;14.10;99.90;;;;;;5035431;28;20021;-73
2022/10/10 07:54:31;;;;;;;15.43;7.35;;;14.20;99.90;;;;;;5039306;28;20088;-73
2022/10/10 07:56:57;;;;;;;14.65;6.63;;;14.30;99.90;;;;;;5040704;28;20025;-72
2022/10/10 07:59:23;;;;;;;10.15;5.93;;;14.40;99.90;;;;;;5025341;28;20029;-72
2022/10/10 08:01:49;;;;;;;10.70;6.07;;;14.40;99.90;;;;;;5032263;28;20163;-72
2022/10/10 08:04:15;;;;;;;16.45;7.55;;;14.40;99.90;;;;;;5025634;28;20040;-72
2022/10/10 08:06:41;;;;;;;21.85;7.70;;;14.30;99.90;;;;;;5025671;28;20029;-72
2022/10/10 08:09:07;;;;;;;26.00;7.07;;;14.40;99.90;;;;;;5030849;28;20064;-72
2022/10/10 08:11:32;;;;;;;14.88;6.60;;;14.50;99.90;;;;;;5025112;28;20036;-72
2022/10/10 08:13:58;;;;;;;13.10;5.90;;;14.50;99.90;;;;;;5036875;28;20120;-72
2022/10/10 08:16:24;;;;;;;13.30;6.68;;;14.40;99.90;;;;;;5024984;28;20033;-73
2022/10/10 08:18:49;;;;;;;13.43;6.40;;;14.40;99.90;;;;;;5035069;28;20044;-72
2022/10/10 08:21:15;;;;;;;10.43;5.88;;;14.50;99.90;;;;;;5029626;28;20120;-72
2022/10/10 08:23:41;;;;;;;8.93;5.57;;;14.70;99.90;;;;;;5030789;28;20033;-71
2022/10/10 08:26:10;;;;;;;12.25;6.22;;;14.70;99.90;;;;;;5024488;28;20026;-71
2022/10/10 08:28:37;;;;;;;8.88;6.03;;;14.80;99.90;;;;;;5022880;28;20669;-70
2022/10/10 08:31:12;;;;;;;9.23;5.15;;;15.10;99.90;;;;;;5028864;28;20387;-70
2022/10/10 08:33:39;;;;;;;11.60;5.50;;;15.30;99.90;;;;;;5026889;28;20153;-71
2022/10/10 08:36:07;;;;;;;9.48;5.30;;;15.30;99.90;;;;;;5025980;28;20125;-72
2022/10/10 08:38:33;;;;;;;10.63;5.75;;;15.50;99.90;;;;;;5035343;28;20171;-71
2022/10/10 08:41:00;;;;;;;51.42;9.98;;;15.50;99.90;;;;;;5022885;28;20852;-71
2022/10/10 08:43:31;;;;;;;15.30;6.68;;;15.40;99.90;;;;;;5036628;28;20065;-71
2022/10/10 08:46:01;;;;;;;117.82;15.70;;;15.30;99.90;;;;;;5043218;28;20031;-71
2022/10/10 08:48:29;;;;;;;26.35;7.13;;;15.40;99.90;;;;;;5034691;28;20890;-71
2022/10/10 08:51:00;;;;;;;15.00;5.70;;;15.50;99.90;;;;;;5030801;28;20356;-71
2022/10/10 08:53:26;;;;;;;14.23;5.85;;;15.40;99.90;;;;;;5030843;28;20113;-71
2022/10/10 08:55:53;;;;;;;8.75;4.70;;;15.50;99.90;;;;;;5025228;28;20231;-71
2022/10/10 08:58:25;;;;;;;11.18;5.10;;;15.50;99.90;;;;;;5028532;28;20031;-71
2022/10/10 09:01:19;;;;;;;15.35;5.95;;;15.60;99.90;;;;;;5024073;28;20103;-71
2022/10/10 09:03:49;;;;;;;18.23;6.10;;;15.70;99.90;;;;;;5036415;28;20535;-72
2022/10/10 09:06:23;;;;;;;12.30;5.55;;;15.80;99.90;;;;;;5029671;28;20381;-71
2022/10/10 09:09:16;;;;;;;15.40;5.93;;;15.80;99.90;;;;;;5023618;28;20025;-71
2022/10/10 09:12:14;;;;;;;11.60;5.38;;;15.80;99.90;;;;;;5037928;28;20041;-71
2022/10/10 09:14:45;;;;;;;13.73;6.57;;;15.80;99.90;;;;;;5025403;28;20061;-71
2022/10/10 09:17:17;;;;;;;11.40;6.13;;;15.80;99.90;;;;;;5028365;28;20057;-71
2022/10/10 09:20:04;;;;;;;10.73;6.05;;;15.70;99.90;;;;;;5030195;28;20357;-71
2022/10/10 09:22:34;;;;;;;10.20;5.82;;;15.80;99.90;;;;;;5035185;28;20041;-71
2022/10/10 09:25:16;;;;;;;11.57;5.55;;;15.90;99.90;;;;;;5026225;28;20483;-71
2022/10/10 09:27:49;;;;;;;16.05;6.97;;;16.00;99.90;;;;;;5026494;28;20034;-69
2022/10/10 09:30:19;;;;;;;16.20;5.07;;;16.00;99.90;;;;;;5034636;28;20060;-71
2022/10/10 09:33:02;;;;;;;9.00;4.68;;;16.00;99.90;;;;;;5037918;28;20033;-71
2022/10/10 09:35:33;;;;;;;7.67;4.80;;;16.10;99.90;;;;;;5032078;28;20026;-71
2022/10/10 09:38:27;;;;;;;9.18;4.57;;;16.30;99.90;;;;;;5023323;28;20295;-71
2022/10/10 09:41:19;;;;;;;35.67;7.35;;;16.40;99.90;;;;;;5037879;28;20371;-71
2022/10/10 09:43:45;;;;;;;10.90;5.05;;;16.60;99.90;;;;;;5037386;28;20511;-72
2022/10/10 09:46:11;;;;;;;13.05;5.82;;;16.60;99.90;;;;;;5042733;28;20035;-72
2022/10/10 09:48:39;;;;;;;12.20;5.50;;;16.80;99.90;;;;;;5043652;28;20021;-73
2022/10/10 09:51:11;;;;;;;11.50;5.45;;;16.90;99.90;;;;;;5043725;28;20767;-72
2022/10/10 09:53:37;;;;;;;16.60;5.28;;;16.90;99.90;;;;;;5045627;28;20029;-72
2022/10/10 09:56:04;;;;;;;23.23;5.47;;;16.80;99.90;;;;;;5036131;28;20098;-73
2022/10/10 09:58:42;;;;;;;16.42;5.60;;;16.90;99.90;;;;;;5045050;28;20029;-72
2022/10/10 10:01:21;;;;;;;16.70;5.60;;;17.00;99.90;;;;;;5024316;28;20128;-72
2022/10/10 10:04:10;;;;;;;10.18;5.50;;;16.90;99.90;;;;;;5027152;28;20029;-72
2022/10/10 10:06:36;;;;;;;12.05;4.97;;;16.90;99.90;;;;;;5035338;28;20144;-72
2022/10/10 10:09:05;;;;;;;9.65;4.80;;;17.00;99.90;;;;;;5032639;28;20032;-72
2022/10/10 10:11:34;;;;;;;8.00;5.22;;;16.90;99.90;;;;;;5026179;28;20040;-72
2022/10/10 10:14:01;;;;;;;14.52;5.68;;;16.90;99.90;;;;;;5023792;28;20049;-72
2022/10/10 10:16:38;;;;;;;11.45;6.00;;;17.10;99.90;;;;;;5031703;28;20662;-72
2022/10/10 10:19:05;;;;;;;11.40;5.13;;;17.30;99.90;;;;;;5036411;28;20124;-72
2022/10/10 10:21:45;;;;;;;13.43;5.50;;;17.30;99.90;;;;;;5026145;28;20048;-72
2022/10/10 10:24:27;;;;;;;8.73;4.43;;;17.40;99.90;;;;;;5025861;28;20507;-72
2022/10/10 10:26:53;;;;;;;10.95;4.28;;;17.60;99.90;;;;;;5037214;28;20120;-72
2022/10/10 10:29:32;;;;;;;15.07;4.60;;;17.70;99.90;;;;;;5027306;28;20459;-72
2022/10/10 10:32:32;;;;;;;22.60;5.43;;;17.80;99.90;;;;;;5028662;28;20026;-73
2022/10/10 10:34:57;;;;;;;14.85;4.75;;;17.90;99.90;;;;;;5029216;28;20085;-72
2022/10/10 10:37:44;;;;;;;44.13;8.38;;;17.70;99.90;;;;;;5025322;28;20749;-72
2022/10/10 10:40:39;;;;;;;11.55;5.18;;;17.70;99.90;;;;;;5025461;28;20577;-72
2022/10/10 10:43:26;;;;;;;337.65;52.42;;;17.70;99.90;;;;;;5030695;28;20052;-72
2022/10/10 10:46:10;;;;;;;27.05;9.10;;;17.70;99.90;;;;;;5025274;28;20527;-73
2022/10/10 10:48:46;;;;;;;25.52;6.28;;;17.80;99.90;;;;;;5024936;28;20021;-72
2022/10/10 10:51:26;;;;;;;11.35;5.60;;;17.80;99.90;;;;;;5031050;28;20040;-72
2022/10/10 10:53:58;;;;;;;9.95;4.55;;;17.90;99.90;;;;;;5026089;28;20041;-73
2022/10/10 10:56:40;;;;;;;18.27;5.15;;;17.80;99.90;;;;;;5027236;28;20056;-72
2022/10/10 10:59:12;;;;;;;31.58;6.50;;;17.80;99.90;;;;;;5024773;28;20091;-72
2022/10/10 11:01:52;;;;;;;16.55;5.38;;;17.70;99.90;;;;;;5022782;28;20037;-73
2022/10/10 11:04:35;;;;;;;113.85;21.85;;;17.80;99.90;;;;;;5035802;28;20352;-72
2022/10/10 11:07:16;;;;;;;18.23;6.60;;;17.80;99.90;;;;;;5022855;28;20034;-72
2022/10/10 11:09:45;;;;;;;14.57;4.88;;;17.90;99.90;;;;;;5027613;28;20039;-73
2022/10/10 11:12:13;;;;;;;9.95;5.18;;;17.90;99.90;;;;;;5024378;28;20032;-75
2022/10/10 11:15:15;;;;;;;10.20;4.95;;;17.90;99.90;;;;;;5026498;28;20048;-76
2022/10/10 11:18:12;;;;;;;13.77;5.50;;;17.90;99.90;;;;;;5031498;28;20041;-75
2022/10/10 11:20:42;;;;;;;15.57;5.75;;;17.70;99.90;;;;;;5023445;28;20053;-74
2022/10/10 11:23:14;;;;;;;13.30;5.10;;;17.80;99.90;;;;;;5023762;28;20619;-76
2022/10/10 11:25:55;;;;;;;11.88;5.28;;;17.90;99.90;;;;;;5022292;28;20159;-72
2022/10/10 11:28:26;;;;;;;14.18;5.07;;;17.90;99.90;;;;;;5029226;28;20128;-75
2022/10/10 11:31:03;;;;;;;17.50;5.75;;;18.00;99.90;;;;;;5024093;28;20105;-77
2022/10/10 11:33:35;;;;;;;16.02;5.72;;;18.10;99.90;;;;;;5022539;28;20029;-75
2022/10/10 11:36:05;;;;;;;11.63;5.20;;;18.20;99.90;;;;;;5026402;28;20053;-73
2022/10/10 11:38:38;;;;;;;12.38;4.68;;;18.20;99.90;;;;;;5024242;28;20044;-74
2022/10/10 11:41:21;;;;;;;12.10;4.80;;;18.30;99.90;;;;;;5029195;28;20038;-74
2022/10/10 11:44:11;;;;;;;19.52;5.78;;;18.30;99.90;;;;;;5034919;28;20074;-74
2022/10/10 11:46:42;;;;;;;13.80;5.10;;;18.00;99.90;;;;;;5029697;28;20041;-74
2022/10/10 11:49:11;;;;;;;16.48;6.35;;;18.20;99.90;;;;;;5036899;28;20032;-74
2022/10/10 11:51:47;;;;;;;30.20;5.45;;;18.40;99.90;;;;;;5048563;28;20017;-74
2022/10/10 11:54:41;;;;;;;9.43;4.78;;;18.30;99.90;;;;;;5034479;28;20090;-74
2022/10/10 11:57:20;;;;;;;7.28;4.43;;;18.30;99.90;;;;;;5040969;28;20038;-74
2022/10/10 11:59:51;;;;;;;9.02;4.75;;;18.40;99.90;;;;;;5040652;28;20120;-74
2022/10/10 12:02:35;;;;;;;14.85;4.63;;;18.40;99.90;;;;;;5028554;28;20040;-74
2022/10/10 12:05:04;;;;;;;10.18;4.45;;;18.40;99.90;;;;;;5024073;28;20060;-74
2022/10/10 12:07:45;;;;;;;28.67;7.28;;;18.40;99.90;;;;;;5027997;28;20025;-74
2022/10/10 12:10:18;;;;;;;164.88;16.95;;;18.50;99.90;;;;;;5044877;28;20086;-74
2022/10/10 12:12:48;;;;;;;37.97;8.35;;;18.80;99.90;;;;;;5042538;28;20052;-74
2022/10/10 12:15:23;;;;;;;8.38;4.55;;;19.10;99.90;;;;;;5038474;28;20052;-74
2022/10/10 12:17:49;;;;;;;23.30;6.07;;;19.30;99.90;;;;;;5043588;28;20418;-74
2022/10/10 12:20:26;;;;;;;20.98;6.38;;;19.50;99.90;;;;;;5024652;28;20080;-74
2022/10/10 12:23:14;;;;;;;10.65;4.13;;;19.60;99.90;;;;;;5034312;28;20039;-74
2022/10/10 12:25:45;;;;;;;8.45;4.28;;;19.80;99.90;;;;;;5033863;28;20025;-74
2022/10/10 12:28:13;;;;;;;109.05;22.00;;;19.90;99.90;;;;;;5035834;28;20495;-74
2022/10/10 12:30:51;;;;;;;29.45;6.18;;;20.00;99.90;;;;;;5027614;28;20025;-74
2022/10/10 12:33:27;;;;;;;21.75;5.82;;;20.00;99.60;;;;;;5036100;28;20512;-74
2022/10/10 12:35:53;;;;;;;9.63;4.22;;;20.00;99.60;;;;;;5032984;28;20033;-74
2022/10/10 12:38:23;;;;;;;11.52;4.78;;;20.00;99.90;;;;;;5037135;28;20076;-74
2022/10/10 12:41:04;;;;;;;9.23;3.95;;;19.90;98.80;;;;;;5029563;28;20037;-73
2022/10/10 12:43:38;;;;;;;10.77;3.75;;;20.00;98.80;;;;;;5030040;28;20032;-73
2022/10/10 12:46:21;;;;;;;58.97;10.23;;;20.00;99.10;;;;;;5028291;28;20517;-73
2022/10/10 12:49:16;;;;;;;10.60;4.20;;;19.90;98.90;;;;;;5025248;28;20036;-74
2022/10/10 12:51:44;;;;;;;9.98;3.72;;;20.10;99.40;;;;;;5027273;28;20407;-74
2022/10/10 12:54:31;;;;;;;16.13;6.15;;;20.00;99.00;;;;;;5042907;28;20025;-73
2022/10/10 12:57:13;;;;;;;10.77;3.58;;;20.10;99.10;;;;;;5028580;28;20025;-73
2022/10/10 12:59:40;;;;;;;15.98;4.28;;;20.00;99.10;;;;;;5038301;28;20029;-76